Archival Weather

Westchester County

White Plains, New York (KHPN)

Report from: Friday, February 23, 2024 10:56 PM EST
Current time: Wednesday, May 29, 2024 7:25 PM EDT

Current weather – Weather history – Daily summaries
Weather forecast

Temperature4.4°C (39.9°F)
Wind chill0.5°C (32.9°F)
Dew point1.7°C (35.1°F)
Winds 10 kts (5.1 m/s, 11.5 mph) Northwest (320°)
Visibility10 mi. (16.1 km)
Clouds Sky clear
Altimeter29.45 in.Hg (997 mB)
Relative humidity83 %
Density altitude-643 ft. (-196 m)
Sea-level pressure99.8 kPa (998 mB, 29.46 in.Hg)
Remarks Automated weather observing station with precipitation discriminator
Flight conditions Visual Meteorological Conditions
Raw dataKHPN 240356Z 32010KT 10SM CLR 04/02 A2945 RMK AO2 SLP976 T00440017
An error has occurred. This application may no longer respond until reloaded. Reload 🗙